Terminal Aerodrome Forecast
Issued by NWS Memphis, TN

Home | Current Version | Previous Version | Text Only | Print | Product List | Glossary On
Versions: 1 2 3 4 5 6 7 8 9 10 11 12 13 14 15 16
000
FTUS44 KMEG 211734
TAFMKL
TAF
KMKL 211734Z 2118/2218 10005KT P6SM FEW050 SCT250
     FM220700 14006KT P6SM FEW015 BKN150
     FM221100 16006KT P6SM OVC010=

USA.gov is the U.S. government's official web portal to all federal, state and local government web resources and services.